Terminal Aerodrome Forecast
Issued by NWS

Home | Current Version | Previous Version | Text Only | Print | Product List | Glossary On
Versions: 1 2 3 4 5 6 7 8 9 10 11 12 13 14 15 16 17 18 19 20
220
FTUS44 KLZK 231729
TAFHRO
TAF
KHRO 231729Z 2318/2418 16010G20KT P6SM FEW250
     FM240600 17010G20KT P6SM BKN040 WS020/21050KT
     FM241500 26015G25KT P6SM SCT250=

USA.gov is the U.S. government's official web portal to all federal, state and local government web resources and services.